sensor_id;sensor_type;location;lat;lon;timestamp;P1;durP1;ratioP1;P2;durP2;ratioP2
67352;SDS011;54238;52.278;21.056;2022-09-28T00:01:15;19.20;;;14.80;;
67352;SDS011;54238;52.278;21.056;2022-09-28T00:03:46;21.80;;;15.10;;
67352;SDS011;54238;52.278;21.056;2022-09-28T00:06:17;19.10;;;15.10;;
67352;SDS011;54238;52.278;21.056;2022-09-28T00:08:46;18.90;;;13.50;;
67352;SDS011;54238;52.278;21.056;2022-09-28T00:11:18;22.90;;;15.20;;
67352;SDS011;54238;52.278;21.056;2022-09-28T00:13:50;19.60;;;14.80;;
67352;SDS011;54238;52.278;21.056;2022-09-28T00:16:28;16.50;;;13.50;;
67352;SDS011;54238;52.278;21.056;2022-09-28T00:18:58;19.50;;;15.70;;
67352;SDS011;54238;52.278;21.056;2022-09-28T00:21:28;17.70;;;14.60;;
67352;SDS011;54238;52.278;21.056;2022-09-28T00:23:59;18.70;;;14.40;;
67352;SDS011;54238;52.278;21.056;2022-09-28T00:29:24;21.60;;;17.30;;
67352;SDS011;54238;52.278;21.056;2022-09-28T00:34:54;15.90;;;11.30;;
67352;SDS011;54238;52.278;21.056;2022-09-28T00:37:22;14.50;;;11.80;;
67352;SDS011;54238;52.278;21.056;2022-09-28T00:39:53;10.10;;;8.60;;
67352;SDS011;54238;52.278;21.056;2022-09-28T00:42:25;9.80;;;8.50;;
67352;SDS011;54238;52.278;21.056;2022-09-28T00:45:02;10.20;;;8.70;;
67352;SDS011;54238;52.278;21.056;2022-09-28T00:47:47;12.90;;;9.80;;
67352;SDS011;54238;52.278;21.056;2022-09-28T00:55:47;8.90;;;6.60;;
67352;SDS011;54238;52.278;21.056;2022-09-28T00:58:28;5.50;;;5.00;;
67352;SDS011;54238;52.278;21.056;2022-09-28T01:00:58;6.90;;;5.10;;
67352;SDS011;54238;52.278;21.056;2022-09-28T01:03:31;4.10;;;3.40;;
67352;SDS011;54238;52.278;21.056;2022-09-28T01:06:03;5.30;;;3.60;;
67352;SDS011;54238;52.278;21.056;2022-09-28T01:08:48;4.70;;;3.20;;
67352;SDS011;54238;52.278;21.056;2022-09-28T01:11:21;4.00;;;3.50;;
67352;SDS011;54238;52.278;21.056;2022-09-28T01:13:49;5.30;;;3.40;;
67352;SDS011;54238;52.278;21.056;2022-09-28T01:16:38;4.30;;;3.20;;
67352;SDS011;54238;52.278;21.056;2022-09-28T01:19:20;3.30;;;2.50;;
67352;SDS011;54238;52.278;21.056;2022-09-28T01:25:14;5.30;;;3.10;;
67352;SDS011;54238;52.278;21.056;2022-09-28T01:27:51;4.30;;;3.20;;
67352;SDS011;54238;52.278;21.056;2022-09-28T01:30:25;4.30;;;3.00;;
67352;SDS011;54238;52.278;21.056;2022-09-28T01:32:57;4.00;;;3.10;;
67352;SDS011;54238;52.278;21.056;2022-09-28T01:35:39;6.20;;;3.20;;
67352;SDS011;54238;52.278;21.056;2022-09-28T01:38:27;3.80;;;3.10;;
67352;SDS011;54238;52.278;21.056;2022-09-28T01:41:03;5.80;;;3.10;;
67352;SDS011;54238;52.278;21.056;2022-09-28T01:43:44;4.50;;;3.30;;
67352;SDS011;54238;52.278;21.056;2022-09-28T01:46:48;3.80;;;2.90;;
67352;SDS011;54238;52.278;21.056;2022-09-28T01:49:33;3.90;;;2.80;;
67352;SDS011;54238;52.278;21.056;2022-09-28T01:54:53;3.70;;;2.30;;
67352;SDS011;54238;52.278;21.056;2022-09-28T02:00:26;3.50;;;2.50;;
67352;SDS011;54238;52.278;21.056;2022-09-28T02:03:07;3.30;;;2.40;;
67352;SDS011;54238;52.278;21.056;2022-09-28T02:05:41;4.70;;;2.70;;
67352;SDS011;54238;52.278;21.056;2022-09-28T02:08:31;2.90;;;2.20;;
67352;SDS011;54238;52.278;21.056;2022-09-28T02:11:08;3.10;;;2.30;;
67352;SDS011;54238;52.278;21.056;2022-09-28T02:19:14;3.70;;;2.50;;
67352;SDS011;54238;52.278;21.056;2022-09-28T02:24:54;4.70;;;2.40;;
67352;SDS011;54238;52.278;21.056;2022-09-28T02:28:01;4.20;;;2.70;;
67352;SDS011;54238;52.278;21.056;2022-09-28T02:30:36;5.50;;;2.90;;
67352;SDS011;54238;52.278;21.056;2022-09-28T02:33:19;2.90;;;2.30;;
67352;SDS011;54238;52.278;21.056;2022-09-28T02:35:50;3.50;;;2.30;;
67352;SDS011;54238;52.278;21.056;2022-09-28T02:38:17;4.40;;;2.60;;
67352;SDS011;54238;52.278;21.056;2022-09-28T02:46:49;4.90;;;2.10;;
67352;SDS011;54238;52.278;21.056;2022-09-28T02:52:33;3.00;;;1.80;;
67352;SDS011;54238;52.278;21.056;2022-09-28T02:55:47;2.70;;;1.90;;
67352;SDS011;54238;52.278;21.056;2022-09-28T02:59:17;4.30;;;2.00;;
67352;SDS011;54238;52.278;21.056;2022-09-28T03:01:52;2.40;;;1.80;;
67352;SDS011;54238;52.278;21.056;2022-09-28T03:07:39;3.50;;;2.20;;
67352;SDS011;54238;52.278;21.056;2022-09-28T03:10:23;2.40;;;1.70;;
67352;SDS011;54238;52.278;21.056;2022-09-28T03:12:55;2.10;;;1.50;;
67352;SDS011;54238;52.278;21.056;2022-09-28T03:15:26;4.10;;;2.20;;
67352;SDS011;54238;52.278;21.056;2022-09-28T03:17:58;3.50;;;2.00;;
67352;SDS011;54238;52.278;21.056;2022-09-28T03:20:29;2.60;;;2.30;;
67352;SDS011;54238;52.278;21.056;2022-09-28T03:22:57;4.20;;;2.40;;
67352;SDS011;54238;52.278;21.056;2022-09-28T03:25:25;2.60;;;2.00;;
67352;SDS011;54238;52.278;21.056;2022-09-28T03:27:53;2.50;;;2.10;;
67352;SDS011;54238;52.278;21.056;2022-09-28T03:30:26;2.80;;;2.30;;
67352;SDS011;54238;52.278;21.056;2022-09-28T03:32:57;4.70;;;3.10;;
67352;SDS011;54238;52.278;21.056;2022-09-28T03:35:31;4.00;;;2.20;;
67352;SDS011;54238;52.278;21.056;2022-09-28T03:37:59;3.80;;;2.40;;
67352;SDS011;54238;52.278;21.056;2022-09-28T03:40:29;3.70;;;3.10;;
67352;SDS011;54238;52.278;21.056;2022-09-28T03:43:03;3.70;;;3.20;;
67352;SDS011;54238;52.278;21.056;2022-09-28T03:45:34;4.60;;;3.30;;
67352;SDS011;54238;52.278;21.056;2022-09-28T03:48:06;4.20;;;3.50;;
67352;SDS011;54238;52.278;21.056;2022-09-28T03:50:36;5.30;;;4.40;;
67352;SDS011;54238;52.278;21.056;2022-09-28T03:53:06;5.20;;;4.40;;
67352;SDS011;54238;52.278;21.056;2022-09-28T03:55:35;7.90;;;5.90;;
67352;SDS011;54238;52.278;21.056;2022-09-28T03:58:07;6.30;;;5.20;;
67352;SDS011;54238;52.278;21.056;2022-09-28T04:00:37;7.00;;;5.10;;
67352;SDS011;54238;52.278;21.056;2022-09-28T04:03:07;7.70;;;5.90;;
67352;SDS011;54238;52.278;21.056;2022-09-28T04:05:36;7.40;;;5.80;;
67352;SDS011;54238;52.278;21.056;2022-09-28T04:08:14;8.20;;;7.00;;
67352;SDS011;54238;52.278;21.056;2022-09-28T04:10:45;7.90;;;6.10;;
67352;SDS011;54238;52.278;21.056;2022-09-28T04:13:18;9.00;;;6.70;;
67352;SDS011;54238;52.278;21.056;2022-09-28T04:15:57;8.70;;;6.70;;
67352;SDS011;54238;52.278;21.056;2022-09-28T04:18:40;9.50;;;6.60;;
67352;SDS011;54238;52.278;21.056;2022-09-28T04:21:15;11.80;;;8.20;;
67352;SDS011;54238;52.278;21.056;2022-09-28T04:23:50;12.60;;;10.70;;
67352;SDS011;54238;52.278;21.056;2022-09-28T04:26:24;11.80;;;9.10;;
67352;SDS011;54238;52.278;21.056;2022-09-28T04:29:00;11.50;;;9.80;;
67352;SDS011;54238;52.278;21.056;2022-09-28T04:31:50;10.50;;;9.00;;
67352;SDS011;54238;52.278;21.056;2022-09-28T04:34:21;11.70;;;9.30;;
67352;SDS011;54238;52.278;21.056;2022-09-28T04:36:49;10.90;;;9.40;;
67352;SDS011;54238;52.278;21.056;2022-09-28T04:39:17;15.40;;;10.20;;
67352;SDS011;54238;52.278;21.056;2022-09-28T04:41:50;12.40;;;10.20;;
67352;SDS011;54238;52.278;21.056;2022-09-28T04:44:24;16.40;;;13.10;;
67352;SDS011;54238;52.278;21.056;2022-09-28T04:49:56;16.80;;;13.20;;
67352;SDS011;54238;52.278;21.056;2022-09-28T04:52:25;17.80;;;13.90;;
67352;SDS011;54238;52.278;21.056;2022-09-28T04:54:55;19.60;;;14.50;;
67352;SDS011;54238;52.278;21.056;2022-09-28T04:57:27;15.10;;;11.20;;
67352;SDS011;54238;52.278;21.056;2022-09-28T04:59:59;14.50;;;11.40;;
67352;SDS011;54238;52.278;21.056;2022-09-28T05:02:29;17.50;;;14.60;;
67352;SDS011;54238;52.278;21.056;2022-09-28T05:05:02;17.10;;;14.80;;
67352;SDS011;54238;52.278;21.056;2022-09-28T05:07:35;14.60;;;12.80;;
67352;SDS011;54238;52.278;21.056;2022-09-28T05:10:12;15.00;;;13.50;;
67352;SDS011;54238;52.278;21.056;2022-09-28T05:12:40;15.30;;;13.00;;
67352;SDS011;54238;52.278;21.056;2022-09-28T05:18:11;15.60;;;11.00;;
67352;SDS011;54238;52.278;21.056;2022-09-28T05:20:40;11.70;;;10.00;;
67352;SDS011;54238;52.278;21.056;2022-09-28T05:23:10;13.50;;;12.20;;
67352;SDS011;54238;52.278;21.056;2022-09-28T05:25:44;17.10;;;13.50;;
67352;SDS011;54238;52.278;21.056;2022-09-28T05:28:21;17.30;;;14.50;;
67352;SDS011;54238;52.278;21.056;2022-09-28T05:31:00;15.40;;;13.80;;
67352;SDS011;54238;52.278;21.056;2022-09-28T05:33:32;15.40;;;12.50;;
67352;SDS011;54238;52.278;21.056;2022-09-28T05:36:06;15.50;;;13.10;;
67352;SDS011;54238;52.278;21.056;2022-09-28T05:38:39;15.00;;;11.00;;
67352;SDS011;54238;52.278;21.056;2022-09-28T05:41:11;14.30;;;10.50;;
67352;SDS011;54238;52.278;21.056;2022-09-28T05:43:38;15.90;;;11.20;;
67352;SDS011;54238;52.278;21.056;2022-09-28T05:49:04;15.10;;;10.60;;
67352;SDS011;54238;52.278;21.056;2022-09-28T05:51:31;11.80;;;10.60;;
67352;SDS011;54238;52.278;21.056;2022-09-28T05:54:03;15.00;;;10.10;;
67352;SDS011;54238;52.278;21.056;2022-09-28T05:56:35;11.90;;;9.90;;
67352;SDS011;54238;52.278;21.056;2022-09-28T05:59:03;13.00;;;11.30;;
67352;SDS011;54238;52.278;21.056;2022-09-28T06:04:35;15.10;;;13.10;;
67352;SDS011;54238;52.278;21.056;2022-09-28T06:07:04;15.00;;;13.00;;
67352;SDS011;54238;52.278;21.056;2022-09-28T06:09:36;14.70;;;13.10;;
67352;SDS011;54238;52.278;21.056;2022-09-28T06:12:04;15.50;;;13.40;;
67352;SDS011;54238;52.278;21.056;2022-09-28T06:14:33;14.50;;;11.90;;
67352;SDS011;54238;52.278;21.056;2022-09-28T06:17:05;13.50;;;11.60;;
67352;SDS011;54238;52.278;21.056;2022-09-28T06:19:37;13.40;;;11.50;;
67352;SDS011;54238;52.278;21.056;2022-09-28T06:22:07;15.20;;;12.90;;
67352;SDS011;54238;52.278;21.056;2022-09-28T06:24:37;12.60;;;10.70;;
67352;SDS011;54238;52.278;21.056;2022-09-28T06:27:06;12.70;;;10.80;;
67352;SDS011;54238;52.278;21.056;2022-09-28T06:29:36;13.40;;;9.20;;
67352;SDS011;54238;52.278;21.056;2022-09-28T06:32:08;15.80;;;12.80;;
67352;SDS011;54238;52.278;21.056;2022-09-28T06:34:39;14.80;;;12.90;;
67352;SDS011;54238;52.278;21.056;2022-09-28T06:37:12;16.20;;;12.70;;
67352;SDS011;54238;52.278;21.056;2022-09-28T06:39:40;11.30;;;9.10;;
67352;SDS011;54238;52.278;21.056;2022-09-28T06:42:10;17.30;;;12.00;;
67352;SDS011;54238;52.278;21.056;2022-09-28T06:44:41;15.40;;;10.20;;
67352;SDS011;54238;52.278;21.056;2022-09-28T06:47:08;18.50;;;13.50;;
67352;SDS011;54238;52.278;21.056;2022-09-28T06:49:36;17.70;;;13.20;;
67352;SDS011;54238;52.278;21.056;2022-09-28T06:52:05;18.00;;;13.30;;
67352;SDS011;54238;52.278;21.056;2022-09-28T06:54:38;16.90;;;14.00;;
67352;SDS011;54238;52.278;21.056;2022-09-28T06:57:08;14.60;;;12.30;;
67352;SDS011;54238;52.278;21.056;2022-09-28T06:59:40;16.40;;;13.60;;
67352;SDS011;54238;52.278;21.056;2022-09-28T07:02:10;13.70;;;11.10;;
67352;SDS011;54238;52.278;21.056;2022-09-28T07:04:47;14.90;;;12.00;;
67352;SDS011;54238;52.278;21.056;2022-09-28T07:07:15;12.80;;;11.10;;
67352;SDS011;54238;52.278;21.056;2022-09-28T07:09:42;12.30;;;10.60;;
67352;SDS011;54238;52.278;21.056;2022-09-28T07:12:12;13.70;;;11.80;;
67352;SDS011;54238;52.278;21.056;2022-09-28T07:14:42;13.20;;;11.60;;
67352;SDS011;54238;52.278;21.056;2022-09-28T07:17:14;15.90;;;11.70;;
67352;SDS011;54238;52.278;21.056;2022-09-28T07:19:48;14.10;;;11.30;;
67352;SDS011;54238;52.278;21.056;2022-09-28T07:22:21;15.00;;;11.00;;
67352;SDS011;54238;52.278;21.056;2022-09-28T07:24:53;10.70;;;8.00;;
67352;SDS011;54238;52.278;21.056;2022-09-28T07:27:24;11.10;;;9.30;;
67352;SDS011;54238;52.278;21.056;2022-09-28T07:29:59;13.10;;;10.30;;
67352;SDS011;54238;52.278;21.056;2022-09-28T07:32:34;14.10;;;10.10;;
67352;SDS011;54238;52.278;21.056;2022-09-28T07:35:05;10.50;;;9.00;;
67352;SDS011;54238;52.278;21.056;2022-09-28T07:37:38;11.60;;;8.60;;
67352;SDS011;54238;52.278;21.056;2022-09-28T07:40:08;13.10;;;9.60;;
67352;SDS011;54238;52.278;21.056;2022-09-28T07:42:56;10.50;;;8.90;;
67352;SDS011;54238;52.278;21.056;2022-09-28T07:45:30;16.00;;;9.90;;
67352;SDS011;54238;52.278;21.056;2022-09-28T07:50:32;11.40;;;9.70;;
67352;SDS011;54238;52.278;21.056;2022-09-28T07:52:59;13.30;;;10.30;;
67352;SDS011;54238;52.278;21.056;2022-09-28T07:55:33;12.60;;;10.80;;
67352;SDS011;54238;52.278;21.056;2022-09-28T07:58:02;11.70;;;9.00;;
67352;SDS011;54238;52.278;21.056;2022-09-28T08:00:35;12.50;;;9.40;;
67352;SDS011;54238;52.278;21.056;2022-09-28T08:03:07;13.00;;;8.60;;
67352;SDS011;54238;52.278;21.056;2022-09-28T08:05:34;11.40;;;8.70;;
67352;SDS011;54238;52.278;21.056;2022-09-28T08:08:02;7.20;;;6.10;;
67352;SDS011;54238;52.278;21.056;2022-09-28T08:10:32;11.00;;;8.20;;
67352;SDS011;54238;52.278;21.056;2022-09-28T08:12:59;9.30;;;8.20;;
67352;SDS011;54238;52.278;21.056;2022-09-28T08:18:31;11.80;;;6.60;;
67352;SDS011;54238;52.278;21.056;2022-09-28T08:21:03;9.50;;;6.60;;
67352;SDS011;54238;52.278;21.056;2022-09-28T08:23:50;13.50;;;7.00;;
67352;SDS011;54238;52.278;21.056;2022-09-28T08:26:20;10.30;;;6.30;;
67352;SDS011;54238;52.278;21.056;2022-09-28T08:28:52;10.10;;;6.60;;
67352;SDS011;54238;52.278;21.056;2022-09-28T08:31:21;9.40;;;6.80;;
67352;SDS011;54238;52.278;21.056;2022-09-28T08:33:50;8.80;;;6.10;;
67352;SDS011;54238;52.278;21.056;2022-09-28T08:36:25;10.50;;;7.40;;
67352;SDS011;54238;52.278;21.056;2022-09-28T08:38:54;10.50;;;6.50;;
67352;SDS011;54238;52.278;21.056;2022-09-28T08:44:17;9.70;;;7.00;;
67352;SDS011;54238;52.278;21.056;2022-09-28T08:47:00;10.70;;;6.90;;
67352;SDS011;54238;52.278;21.056;2022-09-28T08:49:38;11.60;;;6.70;;
67352;SDS011;54238;52.278;21.056;2022-09-28T08:52:17;6.50;;;5.70;;
67352;SDS011;54238;52.278;21.056;2022-09-28T08:55:06;9.60;;;5.60;;
67352;SDS011;54238;52.278;21.056;2022-09-28T08:57:54;6.80;;;5.40;;
67352;SDS011;54238;52.278;21.056;2022-09-28T09:00:46;6.20;;;4.10;;
67352;SDS011;54238;52.278;21.056;2022-09-28T09:03:21;9.20;;;6.50;;
67352;SDS011;54238;52.278;21.056;2022-09-28T09:06:20;7.00;;;5.40;;
67352;SDS011;54238;52.278;21.056;2022-09-28T09:12:39;9.10;;;5.70;;
67352;SDS011;54238;52.278;21.056;2022-09-28T09:26:37;7.90;;;6.00;;
67352;SDS011;54238;52.278;21.056;2022-09-28T09:41:16;7.80;;;6.00;;
67352;SDS011;54238;52.278;21.056;2022-09-28T09:44:10;10.70;;;4.60;;
67352;SDS011;54238;52.278;21.056;2022-09-28T09:49:35;7.90;;;5.30;;
67352;SDS011;54238;52.278;21.056;2022-09-28T09:52:31;9.50;;;5.20;;
67352;SDS011;54238;52.278;21.056;2022-09-28T09:55:26;7.10;;;4.80;;
67352;SDS011;54238;52.278;21.056;2022-09-28T10:01:19;5.50;;;4.00;;
67352;SDS011;54238;52.278;21.056;2022-09-28T10:03:56;4.70;;;3.40;;
67352;SDS011;54238;52.278;21.056;2022-09-28T10:06:32;9.30;;;4.40;;
67352;SDS011;54238;52.278;21.056;2022-09-28T10:09:23;7.90;;;4.20;;
67352;SDS011;54238;52.278;21.056;2022-09-28T10:11:56;8.90;;;3.90;;
67352;SDS011;54238;52.278;21.056;2022-09-28T10:14:31;5.10;;;3.80;;
67352;SDS011;54238;52.278;21.056;2022-09-28T10:16:59;4.60;;;3.00;;
67352;SDS011;54238;52.278;21.056;2022-09-28T10:19:31;6.00;;;3.30;;
67352;SDS011;54238;52.278;21.056;2022-09-28T10:22:05;4.50;;;3.30;;
67352;SDS011;54238;52.278;21.056;2022-09-28T10:24:46;8.30;;;3.40;;
67352;SDS011;54238;52.278;21.056;2022-09-28T10:27:20;5.30;;;3.10;;
67352;SDS011;54238;52.278;21.056;2022-09-28T10:32:54;6.30;;;3.10;;
67352;SDS011;54238;52.278;21.056;2022-09-28T10:35:30;5.00;;;3.20;;
67352;SDS011;54238;52.278;21.056;2022-09-28T10:38:16;8.80;;;3.20;;
67352;SDS011;54238;52.278;21.056;2022-09-28T10:40:47;6.50;;;3.10;;
67352;SDS011;54238;52.278;21.056;2022-09-28T10:43:32;6.00;;;2.40;;
67352;SDS011;54238;52.278;21.056;2022-09-28T10:46:07;6.30;;;3.10;;
67352;SDS011;54238;52.278;21.056;2022-09-28T10:48:53;5.50;;;2.70;;
67352;SDS011;54238;52.278;21.056;2022-09-28T10:51:39;3.30;;;2.50;;
67352;SDS011;54238;52.278;21.056;2022-09-28T10:54:27;7.20;;;2.50;;
67352;SDS011;54238;52.278;21.056;2022-09-28T10:56:57;6.30;;;2.40;;
67352;SDS011;54238;52.278;21.056;2022-09-28T11:04:57;3.70;;;2.60;;
67352;SDS011;54238;52.278;21.056;2022-09-28T11:07:31;8.40;;;3.40;;
67352;SDS011;54238;52.278;21.056;2022-09-28T11:10:23;5.10;;;2.70;;
67352;SDS011;54238;52.278;21.056;2022-09-28T11:12:55;6.20;;;2.80;;
67352;SDS011;54238;52.278;21.056;2022-09-28T11:15:29;3.00;;;2.20;;
67352;SDS011;54238;52.278;21.056;2022-09-28T11:21:06;5.70;;;2.80;;
67352;SDS011;54238;52.278;21.056;2022-09-28T11:23:54;6.70;;;2.90;;
67352;SDS011;54238;52.278;21.056;2022-09-28T11:26:34;9.30;;;3.20;;
67352;SDS011;54238;52.278;21.056;2022-09-28T11:29:05;9.70;;;3.10;;
67352;SDS011;54238;52.278;21.056;2022-09-28T11:31:36;6.30;;;2.80;;
67352;SDS011;54238;52.278;21.056;2022-09-28T11:34:12;6.30;;;3.20;;
67352;SDS011;54238;52.278;21.056;2022-09-28T11:37:04;5.60;;;2.90;;
67352;SDS011;54238;52.278;21.056;2022-09-28T11:39:56;7.10;;;3.20;;
67352;SDS011;54238;52.278;21.056;2022-09-28T11:45:46;5.40;;;2.30;;
67352;SDS011;54238;52.278;21.056;2022-09-28T11:48:22;7.90;;;3.30;;
67352;SDS011;54238;52.278;21.056;2022-09-28T11:51:07;8.20;;;3.80;;
67352;SDS011;54238;52.278;21.056;2022-09-28T11:53:54;7.30;;;3.00;;
67352;SDS011;54238;52.278;21.056;2022-09-28T11:56:33;6.20;;;3.10;;
67352;SDS011;54238;52.278;21.056;2022-09-28T11:59:14;3.40;;;2.40;;
67352;SDS011;54238;52.278;21.056;2022-09-28T12:01:51;4.80;;;2.40;;
67352;SDS011;54238;52.278;21.056;2022-09-28T12:04:32;5.40;;;2.90;;
67352;SDS011;54238;52.278;21.056;2022-09-28T12:07:07;4.90;;;3.20;;
67352;SDS011;54238;52.278;21.056;2022-09-28T12:09:49;5.00;;;2.60;;
67352;SDS011;54238;52.278;21.056;2022-09-28T12:12:32;4.70;;;3.10;;
67352;SDS011;54238;52.278;21.056;2022-09-28T12:15:17;4.80;;;2.60;;
67352;SDS011;54238;52.278;21.056;2022-09-28T12:17:56;5.30;;;2.80;;
67352;SDS011;54238;52.278;21.056;2022-09-28T12:20:33;5.80;;;2.70;;
67352;SDS011;54238;52.278;21.056;2022-09-28T12:23:24;7.70;;;2.90;;
67352;SDS011;54238;52.278;21.056;2022-09-28T12:29:00;5.50;;;2.60;;
67352;SDS011;54238;52.278;21.056;2022-09-28T12:31:37;4.30;;;2.10;;
67352;SDS011;54238;52.278;21.056;2022-09-28T12:34:21;3.90;;;1.90;;
67352;SDS011;54238;52.278;21.056;2022-09-28T12:37:14;6.30;;;2.00;;
67352;SDS011;54238;52.278;21.056;2022-09-28T12:55:22;4.20;;;1.30;;
67352;SDS011;54238;52.278;21.056;2022-09-28T13:01:19;1.90;;;1.10;;
67352;SDS011;54238;52.278;21.056;2022-09-28T13:12:44;4.30;;;2.00;;
67352;SDS011;54238;52.278;21.056;2022-09-28T13:15:48;4.30;;;1.50;;
67352;SDS011;54238;52.278;21.056;2022-09-28T13:18:39;2.50;;;1.60;;
67352;SDS011;54238;52.278;21.056;2022-09-28T13:21:51;9.40;;;1.70;;
67352;SDS011;54238;52.278;21.056;2022-09-28T13:24:37;3.30;;;1.90;;
67352;SDS011;54238;52.278;21.056;2022-09-28T13:27:28;3.90;;;1.90;;
67352;SDS011;54238;52.278;21.056;2022-09-28T13:30:05;1.90;;;1.30;;
67352;SDS011;54238;52.278;21.056;2022-09-28T13:32:39;2.30;;;1.40;;
67352;SDS011;54238;52.278;21.056;2022-09-28T13:35:15;2.40;;;1.50;;
67352;SDS011;54238;52.278;21.056;2022-09-28T13:50:17;4.60;;;2.20;;
67352;SDS011;54238;52.278;21.056;2022-09-28T14:02:12;14.90;;;8.70;;
67352;SDS011;54238;52.278;21.056;2022-09-28T14:06:02;9.40;;;6.80;;
67352;SDS011;54238;52.278;21.056;2022-09-28T14:10:49;6.70;;;3.40;;
67352;SDS011;54238;52.278;21.056;2022-09-28T14:19:06;16.90;;;9.80;;
67352;SDS011;54238;52.278;21.056;2022-09-28T14:33:29;3.40;;;2.20;;
67352;SDS011;54238;52.278;21.056;2022-09-28T14:38:56;2.80;;;1.80;;
67352;SDS011;54238;52.278;21.056;2022-09-28T14:41:45;2.20;;;1.80;;
67352;SDS011;54238;52.278;21.056;2022-09-28T14:44:20;4.70;;;1.70;;
67352;SDS011;54238;52.278;21.056;2022-09-28T14:47:23;3.00;;;2.20;;
67352;SDS011;54238;52.278;21.056;2022-09-28T14:50:21;4.30;;;2.20;;
67352;SDS011;54238;52.278;21.056;2022-09-28T14:53:04;3.80;;;1.90;;
67352;SDS011;54238;52.278;21.056;2022-09-28T14:58:25;3.00;;;2.00;;
67352;SDS011;54238;52.278;21.056;2022-09-28T15:01:10;2.30;;;1.80;;
67352;SDS011;54238;52.278;21.056;2022-09-28T15:03:54;4.20;;;1.80;;
67352;SDS011;54238;52.278;21.056;2022-09-28T15:06:42;3.20;;;2.10;;
67352;SDS011;54238;52.278;21.056;2022-09-28T15:09:29;4.20;;;1.90;;
67352;SDS011;54238;52.278;21.056;2022-09-28T15:15:00;4.20;;;2.30;;
67352;SDS011;54238;52.278;21.056;2022-09-28T15:17:38;3.70;;;2.40;;
67352;SDS011;54238;52.278;21.056;2022-09-28T15:20:24;4.20;;;2.10;;
67352;SDS011;54238;52.278;21.056;2022-09-28T15:22:58;6.30;;;2.10;;
67352;SDS011;54238;52.278;21.056;2022-09-28T15:25:31;3.30;;;2.40;;
67352;SDS011;54238;52.278;21.056;2022-09-28T15:28:17;4.60;;;2.30;;
67352;SDS011;54238;52.278;21.056;2022-09-28T15:30:49;3.20;;;2.10;;
67352;SDS011;54238;52.278;21.056;2022-09-28T15:33:33;5.70;;;2.50;;
67352;SDS011;54238;52.278;21.056;2022-09-28T15:36:27;3.00;;;2.00;;
67352;SDS011;54238;52.278;21.056;2022-09-28T15:41:41;3.00;;;2.20;;
67352;SDS011;54238;52.278;21.056;2022-09-28T15:47:04;5.30;;;2.60;;
67352;SDS011;54238;52.278;21.056;2022-09-28T15:49:44;3.60;;;2.20;;
67352;SDS011;54238;52.278;21.056;2022-09-28T15:52:33;8.10;;;2.80;;
67352;SDS011;54238;52.278;21.056;2022-09-28T15:55:33;4.20;;;2.40;;
67352;SDS011;54238;52.278;21.056;2022-09-28T15:58:21;4.40;;;2.50;;
67352;SDS011;54238;52.278;21.056;2022-09-28T16:00:50;3.70;;;2.40;;
67352;SDS011;54238;52.278;21.056;2022-09-28T16:03:49;10.70;;;2.40;;
67352;SDS011;54238;52.278;21.056;2022-09-28T16:06:22;6.20;;;2.60;;
67352;SDS011;54238;52.278;21.056;2022-09-28T16:08:51;4.10;;;2.20;;
67352;SDS011;54238;52.278;21.056;2022-09-28T16:11:27;4.00;;;2.50;;
67352;SDS011;54238;52.278;21.056;2022-09-28T16:14:18;7.40;;;2.60;;
67352;SDS011;54238;52.278;21.056;2022-09-28T16:16:53;6.70;;;2.90;;
67352;SDS011;54238;52.278;21.056;2022-09-28T16:19:27;6.10;;;2.90;;
67352;SDS011;54238;52.278;21.056;2022-09-28T16:22:06;5.00;;;2.80;;
67352;SDS011;54238;52.278;21.056;2022-09-28T16:24:57;6.80;;;3.10;;
67352;SDS011;54238;52.278;21.056;2022-09-28T16:27:42;4.00;;;2.50;;
67352;SDS011;54238;52.278;21.056;2022-09-28T16:30:14;5.80;;;3.00;;
67352;SDS011;54238;52.278;21.056;2022-09-28T16:33:07;8.20;;;2.80;;
67352;SDS011;54238;52.278;21.056;2022-09-28T16:36:01;8.20;;;3.30;;
67352;SDS011;54238;52.278;21.056;2022-09-28T16:38:33;6.20;;;3.50;;
67352;SDS011;54238;52.278;21.056;2022-09-28T16:41:07;5.20;;;2.70;;
67352;SDS011;54238;52.278;21.056;2022-09-28T16:46:13;12.70;;;3.60;;
67352;SDS011;54238;52.278;21.056;2022-09-28T16:48:46;5.40;;;3.00;;
67352;SDS011;54238;52.278;21.056;2022-09-28T16:51:18;6.20;;;3.60;;
67352;SDS011;54238;52.278;21.056;2022-09-28T16:53:49;7.10;;;3.70;;
67352;SDS011;54238;52.278;21.056;2022-09-28T16:56:37;5.50;;;3.90;;
67352;SDS011;54238;52.278;21.056;2022-09-28T16:59:08;8.30;;;3.90;;
67352;SDS011;54238;52.278;21.056;2022-09-28T17:01:36;5.90;;;3.90;;
67352;SDS011;54238;52.278;21.056;2022-09-28T17:04:14;6.70;;;4.10;;
67352;SDS011;54238;52.278;21.056;2022-09-28T17:06:45;12.10;;;4.80;;
67352;SDS011;54238;52.278;21.056;2022-09-28T17:09:17;12.60;;;4.90;;
67352;SDS011;54238;52.278;21.056;2022-09-28T17:11:47;6.90;;;4.30;;
67352;SDS011;54238;52.278;21.056;2022-09-28T17:14:15;6.00;;;4.60;;
67352;SDS011;54238;52.278;21.056;2022-09-28T17:16:43;8.50;;;4.80;;
67352;SDS011;54238;52.278;21.056;2022-09-28T17:19:23;8.10;;;5.10;;
67352;SDS011;54238;52.278;21.056;2022-09-28T17:21:54;8.40;;;4.70;;
67352;SDS011;54238;52.278;21.056;2022-09-28T17:24:22;10.60;;;4.80;;
67352;SDS011;54238;52.278;21.056;2022-09-28T17:26:52;8.80;;;5.20;;
67352;SDS011;54238;52.278;21.056;2022-09-28T17:29:22;8.10;;;5.30;;
67352;SDS011;54238;52.278;21.056;2022-09-28T17:31:49;9.70;;;5.90;;
67352;SDS011;54238;52.278;21.056;2022-09-28T17:34:16;10.50;;;5.50;;
67352;SDS011;54238;52.278;21.056;2022-09-28T17:36:45;9.30;;;5.70;;
67352;SDS011;54238;52.278;21.056;2022-09-28T17:39:16;12.10;;;6.20;;
67352;SDS011;54238;52.278;21.056;2022-09-28T17:41:44;9.20;;;6.30;;
67352;SDS011;54238;52.278;21.056;2022-09-28T17:44:16;9.80;;;6.40;;
67352;SDS011;54238;52.278;21.056;2022-09-28T17:46:46;9.10;;;6.30;;
67352;SDS011;54238;52.278;21.056;2022-09-28T17:49:18;10.70;;;6.70;;
67352;SDS011;54238;52.278;21.056;2022-09-28T17:51:45;11.30;;;6.40;;
67352;SDS011;54238;52.278;21.056;2022-09-28T17:54:18;12.30;;;7.50;;
67352;SDS011;54238;52.278;21.056;2022-09-28T17:56:48;13.00;;;6.50;;
67352;SDS011;54238;52.278;21.056;2022-09-28T17:59:16;10.20;;;7.40;;
67352;SDS011;54238;52.278;21.056;2022-09-28T18:01:44;15.20;;;6.80;;
67352;SDS011;54238;52.278;21.056;2022-09-28T18:04:11;10.10;;;6.40;;
67352;SDS011;54238;52.278;21.056;2022-09-28T18:06:42;11.70;;;6.20;;
67352;SDS011;54238;52.278;21.056;2022-09-28T18:09:14;12.50;;;6.80;;
67352;SDS011;54238;52.278;21.056;2022-09-28T18:11:43;8.90;;;6.40;;
67352;SDS011;54238;52.278;21.056;2022-09-28T18:14:14;12.10;;;7.50;;
67352;SDS011;54238;52.278;21.056;2022-09-28T18:16:41;11.70;;;6.90;;
67352;SDS011;54238;52.278;21.056;2022-09-28T18:19:11;13.20;;;7.10;;
67352;SDS011;54238;52.278;21.056;2022-09-28T18:21:41;15.10;;;7.30;;
67352;SDS011;54238;52.278;21.056;2022-09-28T18:24:10;9.50;;;6.20;;
67352;SDS011;54238;52.278;21.056;2022-09-28T18:26:42;9.60;;;5.80;;
67352;SDS011;54238;52.278;21.056;2022-09-28T18:29:15;14.90;;;6.30;;
67352;SDS011;54238;52.278;21.056;2022-09-28T18:31:45;11.80;;;7.20;;
67352;SDS011;54238;52.278;21.056;2022-09-28T18:34:14;9.90;;;7.20;;
67352;SDS011;54238;52.278;21.056;2022-09-28T18:36:44;11.80;;;7.30;;